createdAt,value
2023-02-02T00:01:19.968Z,4.66
2023-02-02T00:03:46.683Z,4.99
2023-02-02T00:06:13.337Z,4.93
2023-02-02T00:08:40.177Z,4.01
2023-02-02T00:11:06.838Z,4.32
2023-02-02T00:13:33.619Z,5.13
2023-02-02T00:16:18.056Z,4.64
2023-02-02T00:18:44.777Z,4.81
2023-02-02T00:21:11.428Z,4.36
2023-02-02T00:23:38.109Z,4.55
2023-02-02T00:26:04.849Z,4.74
2023-02-02T00:28:31.546Z,4.56
2023-02-02T00:30:58.300Z,4.93
2023-02-02T00:33:25.016Z,4.53
2023-02-02T00:35:54.886Z,4.14
2023-02-02T00:38:21.615Z,4.81
2023-02-02T00:40:48.356Z,4.70
2023-02-02T00:43:15.037Z,4.61
2023-02-02T00:45:41.853Z,4.81
2023-02-02T00:48:08.559Z,4.45
2023-02-02T00:50:35.241Z,4.73
2023-02-02T00:53:01.872Z,4.46
2023-02-02T00:55:28.728Z,4.40
2023-02-02T00:57:55.429Z,4.31
2023-02-02T01:00:24.506Z,4.74
2023-02-02T01:02:51.877Z,4.87
2023-02-02T01:05:18.967Z,4.87
2023-02-02T01:07:45.793Z,4.89
2023-02-02T01:10:17.346Z,4.94
2023-02-02T01:12:44.479Z,4.95
2023-02-02T01:15:11.902Z,4.96
2023-02-02T01:17:38.796Z,4.89
2023-02-02T01:20:06.860Z,4.95
2023-02-02T01:22:38.638Z,4.93
2023-02-02T01:25:05.876Z,4.91
2023-02-02T01:27:32.585Z,5.00
2023-02-02T01:29:59.315Z,4.03
2023-02-02T01:32:26.054Z,3.75
2023-02-02T01:34:52.770Z,4.13
2023-02-02T01:37:19.495Z,4.48
2023-02-02T01:39:46.177Z,4.27
2023-02-02T01:42:14.318Z,3.96
2023-02-02T01:44:52.955Z,4.12
2023-02-02T01:47:20.797Z,4.30
2023-02-02T01:49:48.225Z,4.60
2023-02-02T01:52:17.283Z,4.77
2023-02-02T01:54:47.513Z,4.85
2023-02-02T01:57:17.321Z,4.51
2023-02-02T01:59:45.558Z,5.18
2023-02-02T02:02:13.065Z,5.04
2023-02-02T02:04:40.579Z,4.79
2023-02-02T02:07:07.595Z,4.91
2023-02-02T02:09:34.575Z,5.01
2023-02-02T02:12:01.377Z,5.31
2023-02-02T02:14:46.964Z,5.08
2023-02-02T02:17:16.455Z,4.30
2023-02-02T02:20:20.975Z,3.95
2023-02-02T02:23:27.271Z,4.54
2023-02-02T02:26:18.640Z,4.91
2023-02-02T02:28:51.235Z,4.92
2023-02-02T02:31:21.013Z,4.28
2023-02-02T02:33:58.499Z,4.49
2023-02-02T02:36:31.370Z,3.93
2023-02-02T02:39:15.377Z,3.89
2023-02-02T02:41:44.944Z,4.17
2023-02-02T02:44:14.424Z,3.89
2023-02-02T02:46:43.044Z,4.00
2023-02-02T02:49:12.063Z,4.24
2023-02-02T02:51:49.473Z,3.93
2023-02-02T02:54:16.694Z,3.83
2023-02-02T02:57:02.293Z,3.67
2023-02-02T02:59:28.985Z,4.27
2023-02-02T03:02:02.184Z,3.87
2023-02-02T03:04:35.196Z,4.19
2023-02-02T03:07:07.743Z,4.03
2023-02-02T03:09:37.412Z,4.10
2023-02-02T03:12:04.335Z,3.64
2023-02-02T03:14:35.223Z,4.05
2023-02-02T03:17:02.132Z,4.53
2023-02-02T03:19:28.963Z,3.79
2023-02-02T03:21:55.815Z,3.61
2023-02-02T03:24:22.564Z,3.70
2023-02-02T03:26:49.435Z,4.13
2023-02-02T03:29:17.186Z,4.16
2023-02-02T03:31:44.174Z,3.89
2023-02-02T03:34:10.946Z,3.82
2023-02-02T03:36:37.714Z,4.20
2023-02-02T03:39:04.436Z,3.92
2023-02-02T03:41:31.166Z,4.08
2023-02-02T03:43:57.975Z,4.09
2023-02-02T03:46:24.763Z,4.39
2023-02-02T03:48:51.603Z,4.37
2023-02-02T03:51:18.352Z,4.28
2023-02-02T03:53:45.155Z,4.41
2023-02-02T03:56:11.815Z,4.32
2023-02-02T03:58:38.568Z,4.44
2023-02-02T04:01:06.612Z,4.14
2023-02-02T04:03:33.599Z,4.44
2023-02-02T04:06:00.744Z,4.33
2023-02-02T04:08:28.580Z,4.17
2023-02-02T04:10:55.301Z,4.48
2023-02-02T04:13:22.034Z,3.87
2023-02-02T04:15:48.908Z,4.25
2023-02-02T04:18:15.655Z,4.47
2023-02-02T04:20:42.325Z,4.49
2023-02-02T04:23:09.015Z,4.61
2023-02-02T04:25:35.798Z,4.80
2023-02-02T04:28:02.540Z,4.80
2023-02-02T04:30:29.237Z,4.81
2023-02-02T04:32:56.395Z,4.39
2023-02-02T04:35:23.451Z,4.71
2023-02-02T04:37:50.476Z,5.02
2023-02-02T04:40:17.176Z,4.96
2023-02-02T04:42:45.555Z,5.01
2023-02-02T04:45:12.266Z,5.14
2023-02-02T04:47:39.046Z,5.31
2023-02-02T04:50:06.005Z,5.32
2023-02-02T04:52:32.736Z,5.23
2023-02-02T04:54:59.467Z,5.46
2023-02-02T04:57:26.297Z,5.18
2023-02-02T04:59:53.045Z,5.47
2023-02-02T05:02:19.740Z,5.48
2023-02-02T05:04:46.479Z,5.48
2023-02-02T05:07:13.240Z,5.27
2023-02-02T05:09:39.957Z,5.01
2023-02-02T05:12:06.652Z,5.28
2023-02-02T05:14:33.312Z,5.15
2023-02-02T05:17:00.127Z,5.07
2023-02-02T05:19:26.837Z,4.99
2023-02-02T05:21:54.965Z,4.96
2023-02-02T05:24:21.727Z,5.07
2023-02-02T05:26:48.535Z,5.17
2023-02-02T05:29:15.223Z,5.45
2023-02-02T05:31:41.922Z,5.54
2023-02-02T05:34:11.602Z,5.57
2023-02-02T05:36:38.357Z,5.56
2023-02-02T05:39:05.841Z,5.68
2023-02-02T05:41:32.739Z,5.57
2023-02-02T05:44:00.036Z,5.67
2023-02-02T05:46:26.869Z,5.33
2023-02-02T05:48:53.636Z,5.52
2023-02-02T05:51:21.937Z,4.85
2023-02-02T05:53:48.665Z,5.35
2023-02-02T05:56:16.077Z,5.06
2023-02-02T05:58:43.193Z,5.12
2023-02-02T06:01:10.207Z,5.21
2023-02-02T06:03:37.027Z,4.32
2023-02-02T06:06:06.690Z,3.45
2023-02-02T06:08:33.712Z,3.52
2023-02-02T06:11:00.376Z,3.58
2023-02-02T06:13:27.093Z,4.31
2023-02-02T06:15:53.833Z,4.49
2023-02-02T06:18:20.824Z,4.67
2023-02-02T06:20:47.935Z,4.96
2023-02-02T06:23:14.593Z,4.95
2023-02-02T06:25:41.255Z,4.94
2023-02-02T06:28:08.655Z,5.09
2023-02-02T06:30:35.462Z,5.20
2023-02-02T06:33:02.651Z,4.82
2023-02-02T06:35:30.167Z,4.59
2023-02-02T06:37:57.966Z,5.29
2023-02-02T06:40:24.821Z,5.38
2023-02-02T06:42:58.106Z,5.59
2023-02-02T06:45:25.929Z,5.41
2023-02-02T06:47:53.554Z,5.55
2023-02-02T06:50:20.706Z,5.62
2023-02-02T06:52:49.068Z,5.81
2023-02-02T06:55:18.925Z,5.57
2023-02-02T06:57:46.186Z,5.76
2023-02-02T07:00:13.344Z,5.54
2023-02-02T07:02:40.564Z,5.48
2023-02-02T07:05:07.485Z,5.65
2023-02-02T07:07:34.996Z,5.43
2023-02-02T07:10:01.932Z,5.36
2023-02-02T07:12:28.970Z,5.74
2023-02-02T07:14:55.857Z,5.36
2023-02-02T07:17:22.689Z,5.41
2023-02-02T07:19:49.548Z,4.85
2023-02-02T07:22:16.388Z,4.30
2023-02-02T07:24:43.296Z,4.90
2023-02-02T07:27:10.156Z,4.86
2023-02-02T07:29:36.982Z,5.31
2023-02-02T07:32:03.769Z,5.42
2023-02-02T07:34:30.588Z,5.52
2023-02-02T07:36:57.916Z,5.42
2023-02-02T07:39:24.756Z,5.45
2023-02-02T07:41:51.727Z,5.42
2023-02-02T07:44:19.072Z,5.29
2023-02-02T07:46:47.550Z,5.06
2023-02-02T07:49:15.507Z,4.87
2023-02-02T07:51:47.230Z,5.12
2023-02-02T07:54:14.472Z,5.31
2023-02-02T07:56:41.309Z,5.25
2023-02-02T07:59:08.176Z,5.40
2023-02-02T08:01:34.972Z,5.22
2023-02-02T08:04:01.949Z,5.49
2023-02-02T08:06:31.671Z,5.79
2023-02-02T08:09:04.378Z,5.63
2023-02-02T08:11:32.128Z,5.63
2023-02-02T08:14:00.075Z,5.65
2023-02-02T08:16:27.675Z,5.85
2023-02-02T08:18:54.935Z,5.96
2023-02-02T08:21:21.937Z,5.82
2023-02-02T08:23:49.330Z,5.92
2023-02-02T08:26:18.257Z,6.34
2023-02-02T08:28:46.025Z,6.45
2023-02-02T08:31:14.994Z,6.79
2023-02-02T08:33:41.811Z,7.44
2023-02-02T08:36:11.650Z,8.19
2023-02-02T08:38:38.367Z,8.91
2023-02-02T08:41:08.283Z,9.58
2023-02-02T08:43:35.431Z,10.18
2023-02-02T08:46:05.544Z,10.26
2023-02-02T08:48:32.816Z,10.54
2023-02-02T08:51:00.154Z,11.05
2023-02-02T08:53:27.307Z,11.15
2023-02-02T08:56:07.669Z,11.02
2023-02-02T08:58:36.689Z,11.26
2023-02-02T09:01:13.667Z,10.93
2023-02-02T09:03:40.834Z,10.46
2023-02-02T09:06:12.179Z,10.35
2023-02-02T09:08:41.275Z,10.36
2023-02-02T09:11:12.469Z,10.83
2023-02-02T09:13:41.908Z,10.45
2023-02-02T09:16:12.947Z,10.65
2023-02-02T09:18:40.100Z,10.69
2023-02-02T09:21:08.235Z,11.10
2023-02-02T09:23:37.733Z,11.61
2023-02-02T09:26:11.720Z,11.82
2023-02-02T09:28:39.556Z,12.12
2023-02-02T09:31:06.922Z,12.32
2023-02-02T09:33:34.007Z,12.70
2023-02-02T09:36:13.894Z,12.88
2023-02-02T09:38:40.917Z,12.82
2023-02-02T09:41:30.957Z,13.24
2023-02-02T09:44:08.876Z,13.33
2023-02-02T09:46:54.186Z,12.98
2023-02-02T09:49:27.129Z,12.68
2023-02-02T09:51:58.501Z,12.70
2023-02-02T09:54:33.032Z,12.28
2023-02-02T09:57:00.634Z,12.08
2023-02-02T09:59:31.793Z,12.12
2023-02-02T10:02:03.328Z,12.21
2023-02-02T10:04:40.579Z,12.09
2023-02-02T10:07:14.243Z,11.88
2023-02-02T10:09:50.387Z,12.10
2023-02-02T10:12:33.748Z,11.71
2023-02-02T10:15:00.645Z,11.11
2023-02-02T10:17:39.563Z,11.18
2023-02-02T10:20:15.597Z,11.00
2023-02-02T10:22:44.317Z,10.81
2023-02-02T10:25:17.429Z,10.57
2023-02-02T10:27:50.853Z,10.62
2023-02-02T10:30:30.347Z,10.70
2023-02-02T10:33:06.054Z,10.77
2023-02-02T10:35:43.343Z,10.68
2023-02-02T10:38:25.306Z,10.81
2023-02-02T10:41:01.262Z,10.58
2023-02-02T10:43:46.263Z,10.59
2023-02-02T10:46:23.293Z,10.26
2023-02-02T10:48:50.844Z,10.46
2023-02-02T10:51:20.764Z,10.91
2023-02-02T10:53:51.478Z,10.97
2023-02-02T10:56:37.100Z,11.39
2023-02-02T10:59:12.987Z,11.72
2023-02-02T11:01:40.057Z,11.49
2023-02-02T11:04:25.476Z,12.31
2023-02-02T11:06:52.574Z,12.74
2023-02-02T11:09:21.505Z,13.22
2023-02-02T11:11:51.725Z,12.87
2023-02-02T11:14:25.147Z,13.63
2023-02-02T11:17:03.408Z,13.05
2023-02-02T11:19:31.294Z,12.29
2023-02-02T11:21:59.564Z,12.68
2023-02-02T11:24:31.148Z,12.41
2023-02-02T11:27:03.844Z,12.96
2023-02-02T11:29:39.887Z,13.21
2023-02-02T11:32:28.016Z,12.95
2023-02-02T11:35:06.881Z,12.77
2023-02-02T11:37:34.976Z,12.03
2023-02-02T11:40:37.191Z,12.16
2023-02-02T11:43:15.841Z,12.52
2023-02-02T11:45:43.746Z,12.53
2023-02-02T11:48:21.585Z,12.63
2023-02-02T11:50:54.060Z,12.05
2023-02-02T11:53:26.492Z,11.97
2023-02-02T11:56:10.860Z,12.00
2023-02-02T11:58:48.034Z,12.03
2023-02-02T12:01:39.110Z,11.02
2023-02-02T12:04:18.209Z,11.20
2023-02-02T12:06:47.475Z,11.21
2023-02-02T12:09:15.571Z,10.68
2023-02-02T12:11:58.109Z,10.22
2023-02-02T12:14:33.745Z,10.39
2023-02-02T12:17:00.614Z,10.23
2023-02-02T12:19:27.467Z,10.10
2023-02-02T12:21:59.737Z,10.49
2023-02-02T12:24:38.173Z,10.54
2023-02-02T12:27:14.116Z,10.53
2023-02-02T12:29:40.917Z,10.24
2023-02-02T12:32:32.716Z,10.13
2023-02-02T12:35:18.109Z,10.63
2023-02-02T12:37:52.281Z,9.83
2023-02-02T12:40:29.992Z,10.28
2023-02-02T12:43:00.683Z,10.20
2023-02-02T12:45:48.750Z,10.18
2023-02-02T12:48:24.452Z,10.18
2023-02-02T12:50:56.490Z,10.37
2023-02-02T12:53:35.580Z,10.03
2023-02-02T12:56:16.712Z,10.11
2023-02-02T12:59:02.384Z,10.01
2023-02-02T13:01:50.921Z,9.90
2023-02-02T13:07:33.214Z,10.09
2023-02-02T13:10:03.822Z,9.98
2023-02-02T13:15:19.037Z,9.73
2023-02-02T13:17:57.000Z,9.35
2023-02-02T13:20:42.593Z,9.03
2023-02-02T13:23:29.620Z,9.49
2023-02-02T13:26:07.609Z,9.26
2023-02-02T13:28:40.383Z,9.20
2023-02-02T13:31:14.549Z,8.96
2023-02-02T13:33:44.679Z,8.77
2023-02-02T13:36:36.192Z,8.99
2023-02-02T13:39:11.881Z,9.15
2023-02-02T13:41:38.783Z,8.83
2023-02-02T13:44:05.512Z,8.86
2023-02-02T13:46:50.996Z,8.99
2023-02-02T13:49:20.849Z,9.12
2023-02-02T13:51:53.295Z,8.81
2023-02-02T13:54:20.129Z,8.67
2023-02-02T13:56:49.989Z,8.73
2023-02-02T13:59:16.692Z,8.82
2023-02-02T14:01:45.972Z,9.04
2023-02-02T14:04:28.787Z,9.14
2023-02-02T14:09:33.968Z,8.76
2023-02-02T14:12:07.453Z,8.93
2023-02-02T14:14:35.938Z,8.39
2023-02-02T14:17:17.476Z,8.69
2023-02-02T14:19:46.185Z,8.86
2023-02-02T14:22:12.866Z,8.82
2023-02-02T14:24:50.402Z,8.91
2023-02-02T14:27:17.189Z,8.81
2023-02-02T14:29:47.099Z,8.58
2023-02-02T14:32:31.673Z,8.79
2023-02-02T14:35:06.501Z,9.08
2023-02-02T14:37:53.437Z,8.74
2023-02-02T14:40:32.197Z,8.76
2023-02-02T14:43:30.035Z,8.79
2023-02-02T14:46:14.974Z,8.98
2023-02-02T14:48:41.838Z,8.87
2023-02-02T14:51:28.108Z,9.09
2023-02-02T14:54:01.280Z,8.79
2023-02-02T14:56:42.446Z,8.64
2023-02-02T14:59:20.184Z,8.53
2023-02-02T15:01:56.600Z,8.85
2023-02-02T15:04:23.473Z,8.82
2023-02-02T15:06:56.126Z,8.93
2023-02-02T15:09:29.534Z,8.84
2023-02-02T15:12:01.164Z,9.02
2023-02-02T15:14:34.153Z,8.89
2023-02-02T15:17:06.078Z,8.93
2023-02-02T15:19:38.588Z,8.90
2023-02-02T15:22:27.001Z,8.66
2023-02-02T15:24:54.287Z,8.62
2023-02-02T15:27:22.936Z,8.56
2023-02-02T15:29:52.992Z,8.49
2023-02-02T15:32:22.247Z,8.39
2023-02-02T15:34:50.493Z,8.40
2023-02-02T15:37:24.682Z,8.34
2023-02-02T15:39:52.388Z,8.57
2023-02-02T15:42:40.841Z,7.92
2023-02-02T15:45:27.488Z,8.23
2023-02-02T15:47:54.849Z,7.90
2023-02-02T15:50:21.940Z,7.93
2023-02-02T15:52:52.555Z,7.81
2023-02-02T15:55:24.253Z,7.94
2023-02-02T15:57:54.368Z,7.96
2023-02-02T16:00:30.894Z,7.92
2023-02-02T16:03:04.730Z,7.71
2023-02-02T16:05:33.398Z,7.93
2023-02-02T16:08:05.958Z,7.96
2023-02-02T16:10:35.343Z,7.58
2023-02-02T16:13:02.451Z,7.14
2023-02-02T16:15:30.310Z,7.15
2023-02-02T16:18:03.401Z,6.89
2023-02-02T16:20:33.129Z,7.18
2023-02-02T16:23:04.071Z,7.04
2023-02-02T16:25:32.643Z,6.99
2023-02-02T16:28:03.055Z,6.87
2023-02-02T16:30:31.608Z,6.50
2023-02-02T16:32:58.535Z,6.77
2023-02-02T16:35:33.112Z,6.65
2023-02-02T16:38:35.501Z,6.48
2023-02-02T16:41:07.941Z,6.73
2023-02-02T16:43:35.465Z,6.67
2023-02-02T16:46:04.715Z,6.51
2023-02-02T16:48:34.569Z,6.43
2023-02-02T16:51:16.596Z,6.67
2023-02-02T16:53:45.197Z,6.71
2023-02-02T16:56:26.422Z,6.63
2023-02-02T16:58:58.199Z,6.53
2023-02-02T17:01:35.347Z,6.67
2023-02-02T17:04:02.362Z,6.53
2023-02-02T17:06:38.714Z,6.45
2023-02-02T17:09:27.238Z,6.36
2023-02-02T17:11:58.170Z,6.65
2023-02-02T17:14:31.423Z,6.65
2023-02-02T17:16:58.320Z,6.81
2023-02-02T17:19:28.452Z,6.55
2023-02-02T17:21:55.727Z,6.45
2023-02-02T17:24:22.432Z,6.54
2023-02-02T17:26:51.437Z,6.36
2023-02-02T17:29:19.837Z,6.43
2023-02-02T17:31:48.671Z,6.24
2023-02-02T17:34:15.755Z,6.29
2023-02-02T17:36:43.149Z,6.23
2023-02-02T17:39:11.693Z,6.46
2023-02-02T17:41:39.268Z,6.35
2023-02-02T17:44:06.256Z,6.20
2023-02-02T17:46:33.343Z,6.39
2023-02-02T17:49:00.339Z,6.87
2023-02-02T17:51:26.959Z,6.60
2023-02-02T17:53:57.792Z,6.36
2023-02-02T17:56:24.531Z,6.71
2023-02-02T17:58:51.158Z,6.49
2023-02-02T18:01:17.995Z,6.32
2023-02-02T18:03:45.408Z,6.27
2023-02-02T18:06:12.350Z,6.69
2023-02-02T18:08:38.965Z,6.57
2023-02-02T18:11:05.707Z,6.56
2023-02-02T18:13:34.502Z,6.66
2023-02-02T18:16:01.216Z,6.72
2023-02-02T18:18:29.850Z,6.13
2023-02-02T18:20:56.858Z,6.36
2023-02-02T18:23:24.808Z,6.35
2023-02-02T18:25:53.001Z,6.32
2023-02-02T18:28:19.745Z,6.28
2023-02-02T18:30:47.317Z,6.32
2023-02-02T18:33:17.049Z,6.06
2023-02-02T18:35:46.637Z,5.95
2023-02-02T18:38:14.658Z,5.60
2023-02-02T18:40:41.381Z,5.62
2023-02-02T18:43:08.659Z,5.89
2023-02-02T18:45:36.677Z,5.81
2023-02-02T18:48:05.388Z,5.57
2023-02-02T18:50:33.363Z,5.55
2023-02-02T18:53:01.401Z,6.00
2023-02-02T18:55:30.132Z,5.48
2023-02-02T18:58:08.119Z,5.34
2023-02-02T19:00:37.230Z,5.59
2023-02-02T19:03:04.114Z,5.39
2023-02-02T19:05:49.533Z,5.52
2023-02-02T19:08:24.860Z,5.53
2023-02-02T19:10:57.467Z,5.55
2023-02-02T19:13:24.608Z,5.29
2023-02-02T19:15:52.015Z,5.55
2023-02-02T19:18:38.765Z,5.50
2023-02-02T19:21:11.020Z,5.14
2023-02-02T19:23:38.099Z,5.35
2023-02-02T19:26:11.638Z,5.04
2023-02-02T19:28:39.390Z,5.01
2023-02-02T19:31:11.016Z,5.11
2023-02-02T19:33:45.441Z,5.12
2023-02-02T19:36:19.798Z,5.30
2023-02-02T19:38:46.986Z,5.25
2023-02-02T19:41:21.363Z,5.09
2023-02-02T19:43:49.011Z,5.02
2023-02-02T19:46:19.135Z,5.24
2023-02-02T19:48:47.600Z,5.23
2023-02-02T19:51:33.126Z,5.29
2023-02-02T19:54:00.566Z,5.26
2023-02-02T19:56:28.370Z,4.95
2023-02-02T19:58:55.040Z,5.02
2023-02-02T20:01:24.642Z,4.75
2023-02-02T20:03:52.665Z,5.07
2023-02-02T20:06:26.861Z,5.03
2023-02-02T20:08:53.763Z,5.00
2023-02-02T20:11:32.444Z,4.82
2023-02-02T20:14:00.262Z,4.88
2023-02-02T20:16:33.990Z,4.90
2023-02-02T20:19:00.641Z,4.85
2023-02-02T20:21:43.186Z,5.27
2023-02-02T20:24:23.691Z,5.01
2023-02-02T20:26:51.350Z,5.07
2023-02-02T20:29:19.880Z,5.09
2023-02-02T20:31:47.008Z,4.96
2023-02-02T20:34:33.557Z,4.65
2023-02-02T20:37:03.197Z,4.70
2023-02-02T20:39:34.021Z,4.76
2023-02-02T20:42:00.948Z,4.86
2023-02-02T20:44:28.640Z,4.49
2023-02-02T20:46:55.958Z,4.68
2023-02-02T20:49:25.731Z,4.67
2023-02-02T20:51:56.404Z,4.48
2023-02-02T20:54:23.769Z,4.66
2023-02-02T20:56:50.996Z,4.43
2023-02-02T20:59:19.358Z,4.71
2023-02-02T21:01:46.509Z,4.81
2023-02-02T21:04:13.187Z,4.70
2023-02-02T21:06:40.405Z,4.88
2023-02-02T21:09:08.165Z,4.74
2023-02-02T21:11:39.163Z,4.71
2023-02-02T21:14:05.979Z,4.48
2023-02-02T21:16:33.740Z,4.69
2023-02-02T21:19:01.862Z,4.91
2023-02-02T21:21:32.806Z,4.78
2023-02-02T21:24:04.485Z,4.53
2023-02-02T21:26:35.335Z,4.39
2023-02-02T21:29:01.982Z,4.39
2023-02-02T21:31:29.025Z,4.41
2023-02-02T21:33:56.990Z,4.55
2023-02-02T21:36:31.777Z,4.26
2023-02-02T21:39:18.070Z,4.50
2023-02-02T21:41:46.923Z,4.27
2023-02-02T21:44:15.378Z,4.58
2023-02-02T21:46:42.487Z,4.36
2023-02-02T21:49:29.319Z,4.08
2023-02-02T21:51:57.650Z,4.48
2023-02-02T21:54:24.491Z,4.42
2023-02-02T21:56:51.678Z,4.67
2023-02-02T21:59:28.720Z,4.86
2023-02-02T22:01:55.525Z,4.65
2023-02-02T22:04:23.497Z,4.72
2023-02-02T22:06:54.828Z,4.50
2023-02-02T22:09:29.127Z,4.68
2023-02-02T22:12:01.525Z,4.37
2023-02-02T22:14:38.851Z,4.57
2023-02-02T22:17:18.735Z,4.87
2023-02-02T22:19:45.460Z,5.17
2023-02-02T22:22:16.435Z,5.01
2023-02-02T22:24:44.716Z,5.06
2023-02-02T22:27:19.408Z,4.48
2023-02-02T22:29:46.192Z,4.67
2023-02-02T22:32:12.878Z,4.65
2023-02-02T22:34:39.588Z,4.91
2023-02-02T22:37:06.168Z,4.85
2023-02-02T22:39:32.841Z,4.94
2023-02-02T22:41:59.458Z,4.93
2023-02-02T22:44:26.060Z,4.39
2023-02-02T22:46:52.627Z,3.96
2023-02-02T22:49:19.242Z,4.60
2023-02-02T22:51:45.839Z,4.82
2023-02-02T22:54:12.469Z,4.85
2023-02-02T22:56:39.103Z,4.89
2023-02-02T22:59:05.711Z,4.94
2023-02-02T23:01:32.288Z,4.57
2023-02-02T23:03:59.004Z,4.59
2023-02-02T23:06:25.854Z,4.39
2023-02-02T23:08:52.455Z,4.13
2023-02-02T23:11:19.236Z,3.67
2023-02-02T23:13:45.860Z,3.76
2023-02-02T23:16:12.703Z,4.02
2023-02-02T23:18:39.415Z,3.55
2023-02-02T23:21:06.138Z,4.04
2023-02-02T23:23:32.852Z,3.82
2023-02-02T23:25:59.468Z,4.16
2023-02-02T23:28:26.135Z,4.37
2023-02-02T23:30:54.809Z,4.27
2023-02-02T23:33:21.502Z,4.06
2023-02-02T23:35:48.098Z,4.49
2023-02-02T23:38:14.877Z,4.57
2023-02-02T23:40:41.468Z,4.44
2023-02-02T23:43:08.214Z,4.52
2023-02-02T23:45:34.908Z,4.92
2023-02-02T23:48:01.737Z,5.02
2023-02-02T23:50:28.935Z,5.09
2023-02-02T23:52:55.716Z,5.02
2023-02-02T23:55:22.475Z,4.75
2023-02-02T23:57:49.288Z,4.65
